sensor_id;sensor_type;location;lat;lon;timestamp;temperature;humidity
44863;DHT22;30597;49.628;10.850;2023-01-15T00:00:46;20.50;53.10
44863;DHT22;30597;49.628;10.850;2023-01-15T00:03:12;20.50;53.20
44863;DHT22;30597;49.628;10.850;2023-01-15T00:05:38;20.50;53.30
44863;DHT22;30597;49.628;10.850;2023-01-15T00:08:03;20.50;53.30
44863;DHT22;30597;49.628;10.850;2023-01-15T00:10:29;20.40;53.30
44863;DHT22;30597;49.628;10.850;2023-01-15T00:12:54;20.50;53.60
44863;DHT22;30597;49.628;10.850;2023-01-15T00:15:20;20.40;53.40
44863;DHT22;30597;49.628;10.850;2023-01-15T00:17:45;20.40;53.60
44863;DHT22;30597;49.628;10.850;2023-01-15T00:20:11;20.40;53.50
44863;DHT22;30597;49.628;10.850;2023-01-15T00:22:37;20.40;53.50
44863;DHT22;30597;49.628;10.850;2023-01-15T00:25:03;20.40;52.20
44863;DHT22;30597;49.628;10.850;2023-01-15T00:27:47;20.40;52.30
44863;DHT22;30597;49.628;10.850;2023-01-15T00:30:14;20.40;52.30
44863;DHT22;30597;49.628;10.850;2023-01-15T00:32:41;20.30;52.40
44863;DHT22;30597;49.628;10.850;2023-01-15T00:35:14;20.30;52.60
44863;DHT22;30597;49.628;10.850;2023-01-15T00:37:40;20.30;52.70
44863;DHT22;30597;49.628;10.850;2023-01-15T00:40:06;20.20;52.70
44863;DHT22;30597;49.628;10.850;2023-01-15T00:42:32;20.10;52.90
44863;DHT22;30597;49.628;10.850;2023-01-15T00:44:57;20.10;52.90
44863;DHT22;30597;49.628;10.850;2023-01-15T00:47:23;20.10;53.00
44863;DHT22;30597;49.628;10.850;2023-01-15T00:49:49;20.10;53.20
44863;DHT22;30597;49.628;10.850;2023-01-15T00:52:16;20.00;53.30
44863;DHT22;30597;49.628;10.850;2023-01-15T00:54:41;19.90;53.30
44863;DHT22;30597;49.628;10.850;2023-01-15T00:57:07;19.90;53.50
44863;DHT22;30597;49.628;10.850;2023-01-15T00:59:35;19.90;53.50
44863;DHT22;30597;49.628;10.850;2023-01-15T01:02:01;19.80;53.40
44863;DHT22;30597;49.628;10.850;2023-01-15T01:04:26;19.80;53.40
44863;DHT22;30597;49.628;10.850;2023-01-15T01:06:52;19.80;53.50
44863;DHT22;30597;49.628;10.850;2023-01-15T01:09:17;19.80;53.50
44863;DHT22;30597;49.628;10.850;2023-01-15T01:11:43;19.80;53.60
44863;DHT22;30597;49.628;10.850;2023-01-15T01:14:10;19.70;53.60
44863;DHT22;30597;49.628;10.850;2023-01-15T01:16:40;19.70;54.00
44863;DHT22;30597;49.628;10.850;2023-01-15T01:19:15;19.80;54.00
44863;DHT22;30597;49.628;10.850;2023-01-15T01:21:41;19.70;54.00
44863;DHT22;30597;49.628;10.850;2023-01-15T01:24:10;19.70;54.00
44863;DHT22;30597;49.628;10.850;2023-01-15T01:26:35;19.70;54.00
44863;DHT22;30597;49.628;10.850;2023-01-15T01:29:02;19.70;54.00
44863;DHT22;30597;49.628;10.850;2023-01-15T01:31:28;19.70;54.10
44863;DHT22;30597;49.628;10.850;2023-01-15T01:33:55;19.80;54.10
44863;DHT22;30597;49.628;10.850;2023-01-15T01:36:29;19.70;54.10
44863;DHT22;30597;49.628;10.850;2023-01-15T01:38:55;19.70;54.10
44863;DHT22;30597;49.628;10.850;2023-01-15T01:41:21;19.70;54.10
44863;DHT22;30597;49.628;10.850;2023-01-15T01:43:55;19.70;54.00
44863;DHT22;30597;49.628;10.850;2023-01-15T01:46:22;19.70;54.00
44863;DHT22;30597;49.628;10.850;2023-01-15T01:48:49;19.60;53.90
44863;DHT22;30597;49.628;10.850;2023-01-15T01:51:17;19.60;54.00
44863;DHT22;30597;49.628;10.850;2023-01-15T01:53:43;19.60;54.10
44863;DHT22;30597;49.628;10.850;2023-01-15T01:56:09;19.60;54.00
44863;DHT22;30597;49.628;10.850;2023-01-15T01:58:36;19.60;54.00
44863;DHT22;30597;49.628;10.850;2023-01-15T02:01:02;19.60;54.20
44863;DHT22;30597;49.628;10.850;2023-01-15T02:03:33;19.60;54.20
44863;DHT22;30597;49.628;10.850;2023-01-15T02:06:00;19.60;54.20
44863;DHT22;30597;49.628;10.850;2023-01-15T02:08:27;19.50;54.10
44863;DHT22;30597;49.628;10.850;2023-01-15T02:10:54;19.50;54.10
44863;DHT22;30597;49.628;10.850;2023-01-15T02:13:34;19.50;54.10
44863;DHT22;30597;49.628;10.850;2023-01-15T02:18:59;19.50;54.20
44863;DHT22;30597;49.628;10.850;2023-01-15T02:24:16;19.50;54.30
44863;DHT22;30597;49.628;10.850;2023-01-15T02:27:05;19.50;54.30
44863;DHT22;30597;49.628;10.850;2023-01-15T02:30:09;19.50;54.40
44863;DHT22;30597;49.628;10.850;2023-01-15T02:32:43;19.40;54.30
44863;DHT22;30597;49.628;10.850;2023-01-15T02:35:18;19.50;54.50
44863;DHT22;30597;49.628;10.850;2023-01-15T02:37:50;19.40;54.40
44863;DHT22;30597;49.628;10.850;2023-01-15T02:40:21;19.40;54.40
44863;DHT22;30597;49.628;10.850;2023-01-15T02:42:48;19.40;54.40
44863;DHT22;30597;49.628;10.850;2023-01-15T02:45:22;19.40;54.30
44863;DHT22;30597;49.628;10.850;2023-01-15T02:47:53;19.40;54.50
44863;DHT22;30597;49.628;10.850;2023-01-15T02:50:26;19.30;54.40
44863;DHT22;30597;49.628;10.850;2023-01-15T02:52:58;19.30;54.40
44863;DHT22;30597;49.628;10.850;2023-01-15T02:55:31;19.30;54.60
44863;DHT22;30597;49.628;10.850;2023-01-15T02:58:01;19.30;54.60
44863;DHT22;30597;49.628;10.850;2023-01-15T03:00:31;19.30;54.60
44863;DHT22;30597;49.628;10.850;2023-01-15T03:03:06;19.30;54.70
44863;DHT22;30597;49.628;10.850;2023-01-15T03:05:39;19.20;54.60
44863;DHT22;30597;49.628;10.850;2023-01-15T03:08:10;19.20;54.70
44863;DHT22;30597;49.628;10.850;2023-01-15T03:11:08;19.20;54.60
44863;DHT22;30597;49.628;10.850;2023-01-15T03:13:48;19.20;54.60
44863;DHT22;30597;49.628;10.850;2023-01-15T03:16:36;19.20;54.70
44863;DHT22;30597;49.628;10.850;2023-01-15T03:22:15;19.20;54.80
44863;DHT22;30597;49.628;10.850;2023-01-15T03:24:58;19.20;54.80
44863;DHT22;30597;49.628;10.850;2023-01-15T03:27:28;19.10;54.70
44863;DHT22;30597;49.628;10.850;2023-01-15T03:30:05;19.10;54.60
44863;DHT22;30597;49.628;10.850;2023-01-15T03:32:31;19.20;54.80
44863;DHT22;30597;49.628;10.850;2023-01-15T03:34:57;19.10;54.60
44863;DHT22;30597;49.628;10.850;2023-01-15T03:37:24;19.10;54.60
44863;DHT22;30597;49.628;10.850;2023-01-15T03:39:52;19.10;54.70
44863;DHT22;30597;49.628;10.850;2023-01-15T03:44:56;19.10;54.70
44863;DHT22;30597;49.628;10.850;2023-01-15T03:48:01;19.10;54.80
44863;DHT22;30597;49.628;10.850;2023-01-15T03:50:42;19.10;54.80
44863;DHT22;30597;49.628;10.850;2023-01-15T03:53:25;19.10;54.90
44863;DHT22;30597;49.628;10.850;2023-01-15T03:58:44;19.10;54.90
44863;DHT22;30597;49.628;10.850;2023-01-15T04:01:18;19.10;55.00
44863;DHT22;30597;49.628;10.850;2023-01-15T04:03:45;19.10;55.00
44863;DHT22;30597;49.628;10.850;2023-01-15T04:06:13;19.00;55.00
44863;DHT22;30597;49.628;10.850;2023-01-15T04:08:41;19.00;54.90
44863;DHT22;30597;49.628;10.850;2023-01-15T04:11:08;19.00;55.00
44863;DHT22;30597;49.628;10.850;2023-01-15T04:13:33;19.10;55.00
44863;DHT22;30597;49.628;10.850;2023-01-15T04:15:59;19.00;54.90
44863;DHT22;30597;49.628;10.850;2023-01-15T04:18:25;19.00;55.00
44863;DHT22;30597;49.628;10.850;2023-01-15T04:20:51;19.00;55.60
44863;DHT22;30597;49.628;10.850;2023-01-15T04:23:18;19.00;55.00
44863;DHT22;30597;49.628;10.850;2023-01-15T04:25:44;19.00;54.90
44863;DHT22;30597;49.628;10.850;2023-01-15T04:28:10;19.00;55.10
44863;DHT22;30597;49.628;10.850;2023-01-15T04:30:37;19.10;55.20
44863;DHT22;30597;49.628;10.850;2023-01-15T04:33:03;19.10;55.10
44863;DHT22;30597;49.628;10.850;2023-01-15T04:35:29;19.20;55.00
44863;DHT22;30597;49.628;10.850;2023-01-15T04:37:56;19.30;55.20
44863;DHT22;30597;49.628;10.850;2023-01-15T04:40:22;19.30;55.10
44863;DHT22;30597;49.628;10.850;2023-01-15T04:43:09;19.40;55.50
44863;DHT22;30597;49.628;10.850;2023-01-15T04:45:54;19.50;54.80
44863;DHT22;30597;49.628;10.850;2023-01-15T04:48:19;19.60;54.80
44863;DHT22;30597;49.628;10.850;2023-01-15T04:50:45;19.70;54.70
44863;DHT22;30597;49.628;10.850;2023-01-15T04:53:10;19.70;54.50
44863;DHT22;30597;49.628;10.850;2023-01-15T04:55:36;19.80;54.40
44863;DHT22;30597;49.628;10.850;2023-01-15T04:58:01;19.80;54.30
44863;DHT22;30597;49.628;10.850;2023-01-15T05:00:27;19.90;54.20
44863;DHT22;30597;49.628;10.850;2023-01-15T05:02:53;20.00;54.40
44863;DHT22;30597;49.628;10.850;2023-01-15T05:05:18;20.00;54.30
44863;DHT22;30597;49.628;10.850;2023-01-15T05:07:44;20.00;54.20
44863;DHT22;30597;49.628;10.850;2023-01-15T05:10:10;20.00;54.00
44863;DHT22;30597;49.628;10.850;2023-01-15T05:12:37;20.10;54.20
44863;DHT22;30597;49.628;10.850;2023-01-15T05:15:03;20.00;54.00
44863;DHT22;30597;49.628;10.850;2023-01-15T05:17:30;20.00;54.10
44863;DHT22;30597;49.628;10.850;2023-01-15T05:19:56;19.90;54.30
44863;DHT22;30597;49.628;10.850;2023-01-15T05:22:21;19.90;54.30
44863;DHT22;30597;49.628;10.850;2023-01-15T05:24:47;19.80;54.30
44863;DHT22;30597;49.628;10.850;2023-01-15T05:27:12;19.90;54.40
44863;DHT22;30597;49.628;10.850;2023-01-15T05:29:38;19.80;54.50
44863;DHT22;30597;49.628;10.850;2023-01-15T05:32:04;19.80;54.60
44863;DHT22;30597;49.628;10.850;2023-01-15T05:34:29;19.80;54.60
44863;DHT22;30597;49.628;10.850;2023-01-15T05:36:55;19.70;54.70
44863;DHT22;30597;49.628;10.850;2023-01-15T05:39:20;19.70;54.80
44863;DHT22;30597;49.628;10.850;2023-01-15T05:41:46;19.70;54.90
44863;DHT22;30597;49.628;10.850;2023-01-15T05:46:45;19.70;55.10
44863;DHT22;30597;49.628;10.850;2023-01-15T05:49:14;19.60;55.10
44863;DHT22;30597;49.628;10.850;2023-01-15T05:51:40;19.60;55.10
44863;DHT22;30597;49.628;10.850;2023-01-15T05:54:08;19.60;55.00
44863;DHT22;30597;49.628;10.850;2023-01-15T05:56:36;19.50;55.20
44863;DHT22;30597;49.628;10.850;2023-01-15T05:59:03;19.50;55.20
44863;DHT22;30597;49.628;10.850;2023-01-15T06:01:28;19.50;55.10
44863;DHT22;30597;49.628;10.850;2023-01-15T06:03:57;19.30;55.00
44863;DHT22;30597;49.628;10.850;2023-01-15T06:06:23;19.30;55.40
44863;DHT22;30597;49.628;10.850;2023-01-15T06:08:49;19.30;55.60
44863;DHT22;30597;49.628;10.850;2023-01-15T06:11:15;19.20;55.80
44863;DHT22;30597;49.628;10.850;2023-01-15T06:13:40;19.20;55.70
44863;DHT22;30597;49.628;10.850;2023-01-15T06:16:07;19.10;55.90
44863;DHT22;30597;49.628;10.850;2023-01-15T06:18:35;19.10;55.90
44863;DHT22;30597;49.628;10.850;2023-01-15T06:21:05;19.10;56.10
44863;DHT22;30597;49.628;10.850;2023-01-15T06:23:32;19.10;56.00
44863;DHT22;30597;49.628;10.850;2023-01-15T06:26:02;19.20;56.10
44863;DHT22;30597;49.628;10.850;2023-01-15T06:28:27;19.10;56.20
44863;DHT22;30597;49.628;10.850;2023-01-15T06:30:53;19.10;56.20
44863;DHT22;30597;49.628;10.850;2023-01-15T06:33:19;19.10;56.20
44863;DHT22;30597;49.628;10.850;2023-01-15T06:35:45;19.10;56.20
44863;DHT22;30597;49.628;10.850;2023-01-15T06:38:10;19.10;56.30
44863;DHT22;30597;49.628;10.850;2023-01-15T06:40:36;19.10;56.30
44863;DHT22;30597;49.628;10.850;2023-01-15T06:43:02;19.10;56.30
44863;DHT22;30597;49.628;10.850;2023-01-15T06:45:46;19.10;56.30
44863;DHT22;30597;49.628;10.850;2023-01-15T06:48:30;19.10;56.90
44863;DHT22;30597;49.628;10.850;2023-01-15T06:50:56;19.10;56.30
44863;DHT22;30597;49.628;10.850;2023-01-15T06:53:21;19.10;56.30
44863;DHT22;30597;49.628;10.850;2023-01-15T06:55:47;19.00;56.40
44863;DHT22;30597;49.628;10.850;2023-01-15T06:58:13;19.00;56.50
44863;DHT22;30597;49.628;10.850;2023-01-15T07:00:39;19.00;56.70
44863;DHT22;30597;49.628;10.850;2023-01-15T07:03:09;19.10;56.70
44863;DHT22;30597;49.628;10.850;2023-01-15T07:05:38;19.10;56.50
44863;DHT22;30597;49.628;10.850;2023-01-15T07:08:04;19.30;56.50
44863;DHT22;30597;49.628;10.850;2023-01-15T07:10:30;19.30;56.30
44863;DHT22;30597;49.628;10.850;2023-01-15T07:12:55;19.40;56.10
44863;DHT22;30597;49.628;10.850;2023-01-15T07:15:21;19.50;56.00
44863;DHT22;30597;49.628;10.850;2023-01-15T07:17:46;19.60;55.80
44863;DHT22;30597;49.628;10.850;2023-01-15T07:20:12;19.70;55.70
44863;DHT22;30597;49.628;10.850;2023-01-15T07:22:38;19.80;55.60
44863;DHT22;30597;49.628;10.850;2023-01-15T07:25:04;19.80;55.40
44863;DHT22;30597;49.628;10.850;2023-01-15T07:27:29;19.90;55.50
44863;DHT22;30597;49.628;10.850;2023-01-15T07:29:55;19.90;55.30
44863;DHT22;30597;49.628;10.850;2023-01-15T07:32:20;20.00;55.30
44863;DHT22;30597;49.628;10.850;2023-01-15T07:34:46;20.10;55.30
44863;DHT22;30597;49.628;10.850;2023-01-15T07:37:12;20.00;55.20
44863;DHT22;30597;49.628;10.850;2023-01-15T07:39:37;20.10;55.20
44863;DHT22;30597;49.628;10.850;2023-01-15T07:42:03;20.10;55.20
44863;DHT22;30597;49.628;10.850;2023-01-15T07:44:47;20.20;55.30
44863;DHT22;30597;49.628;10.850;2023-01-15T07:47:31;20.20;55.30
44863;DHT22;30597;49.628;10.850;2023-01-15T07:50:19;20.20;55.30
44863;DHT22;30597;49.628;10.850;2023-01-15T07:52:45;20.30;55.40
44863;DHT22;30597;49.628;10.850;2023-01-15T07:55:11;20.30;55.50
44863;DHT22;30597;49.628;10.850;2023-01-15T07:57:38;20.30;55.20
44863;DHT22;30597;49.628;10.850;2023-01-15T08:00:11;20.30;54.90
44863;DHT22;30597;49.628;10.850;2023-01-15T08:02:37;20.30;54.70
44863;DHT22;30597;49.628;10.850;2023-01-15T08:05:03;20.40;54.90
44863;DHT22;30597;49.628;10.850;2023-01-15T08:07:28;20.40;54.80
44863;DHT22;30597;49.628;10.850;2023-01-15T08:09:54;20.50;54.80
44863;DHT22;30597;49.628;10.850;2023-01-15T08:12:19;20.50;54.70
44863;DHT22;30597;49.628;10.850;2023-01-15T08:15:04;20.50;54.50
44863;DHT22;30597;49.628;10.850;2023-01-15T08:17:50;20.50;54.40
44863;DHT22;30597;49.628;10.850;2023-01-15T08:20:20;20.50;54.60
44863;DHT22;30597;49.628;10.850;2023-01-15T08:22:46;20.50;54.90
44863;DHT22;30597;49.628;10.850;2023-01-15T08:25:18;20.60;54.80
44863;DHT22;30597;49.628;10.850;2023-01-15T08:27:45;20.70;54.80
44863;DHT22;30597;49.628;10.850;2023-01-15T08:30:14;20.80;54.80
44863;DHT22;30597;49.628;10.850;2023-01-15T08:32:40;20.80;54.70
44863;DHT22;30597;49.628;10.850;2023-01-15T08:35:07;20.80;54.60
44863;DHT22;30597;49.628;10.850;2023-01-15T08:37:32;20.90;54.60
44863;DHT22;30597;49.628;10.850;2023-01-15T08:39:58;20.90;54.50
44863;DHT22;30597;49.628;10.850;2023-01-15T08:42:24;20.90;54.40
44863;DHT22;30597;49.628;10.850;2023-01-15T08:44:51;21.00;54.50
44863;DHT22;30597;49.628;10.850;2023-01-15T08:47:18;21.00;54.40
44863;DHT22;30597;49.628;10.850;2023-01-15T08:49:45;21.00;54.40
44863;DHT22;30597;49.628;10.850;2023-01-15T08:52:11;21.10;54.40
44863;DHT22;30597;49.628;10.850;2023-01-15T08:54:37;21.10;54.30
44863;DHT22;30597;49.628;10.850;2023-01-15T08:57:03;21.10;54.30
44863;DHT22;30597;49.628;10.850;2023-01-15T08:59:28;21.10;54.30
44863;DHT22;30597;49.628;10.850;2023-01-15T09:01:54;21.10;54.20
44863;DHT22;30597;49.628;10.850;2023-01-15T09:04:20;21.20;54.20
44863;DHT22;30597;49.628;10.850;2023-01-15T09:06:47;21.20;54.10
44863;DHT22;30597;49.628;10.850;2023-01-15T09:09:13;21.20;54.10
44863;DHT22;30597;49.628;10.850;2023-01-15T09:11:40;21.20;54.00
44863;DHT22;30597;49.628;10.850;2023-01-15T09:14:11;21.30;54.20
44863;DHT22;30597;49.628;10.850;2023-01-15T09:16:37;21.30;54.80
44863;DHT22;30597;49.628;10.850;2023-01-15T09:19:04;21.20;54.10
44863;DHT22;30597;49.628;10.850;2023-01-15T09:21:30;21.20;54.00
44863;DHT22;30597;49.628;10.850;2023-01-15T09:23:55;21.30;54.00
44863;DHT22;30597;49.628;10.850;2023-01-15T09:28:52;21.20;54.00
44863;DHT22;30597;49.628;10.850;2023-01-15T09:31:18;21.20;52.90
44863;DHT22;30597;49.628;10.850;2023-01-15T09:34:04;21.10;50.70
44863;DHT22;30597;49.628;10.850;2023-01-15T09:36:50;21.00;49.00
44863;DHT22;30597;49.628;10.850;2023-01-15T09:39:37;21.00;48.40
44863;DHT22;30597;49.628;10.850;2023-01-15T09:42:42;21.00;48.70
44863;DHT22;30597;49.628;10.850;2023-01-15T09:45:39;21.00;49.10
44863;DHT22;30597;49.628;10.850;2023-01-15T09:48:40;21.00;49.40
44863;DHT22;30597;49.628;10.850;2023-01-15T09:51:56;21.00;50.20
44863;DHT22;30597;49.628;10.850;2023-01-15T09:55:02;21.00;49.70
44863;DHT22;30597;49.628;10.850;2023-01-15T09:57:52;21.00;49.90
44863;DHT22;30597;49.628;10.850;2023-01-15T10:00:46;21.00;50.00
44863;DHT22;30597;49.628;10.850;2023-01-15T10:03:44;21.00;50.10
44863;DHT22;30597;49.628;10.850;2023-01-15T10:06:37;21.00;50.10
44863;DHT22;30597;49.628;10.850;2023-01-15T10:09:33;21.10;50.30
44863;DHT22;30597;49.628;10.850;2023-01-15T10:12:27;21.10;50.30
44863;DHT22;30597;49.628;10.850;2023-01-15T10:15:40;21.10;50.30
44863;DHT22;30597;49.628;10.850;2023-01-15T10:18:27;21.10;50.40
44863;DHT22;30597;49.628;10.850;2023-01-15T10:24:17;21.20;50.40
44863;DHT22;30597;49.628;10.850;2023-01-15T10:27:18;21.20;50.40
44863;DHT22;30597;49.628;10.850;2023-01-15T10:29:48;21.20;50.50
44863;DHT22;30597;49.628;10.850;2023-01-15T10:32:25;21.20;50.50
44863;DHT22;30597;49.628;10.850;2023-01-15T10:35:06;21.20;50.60
44863;DHT22;30597;49.628;10.850;2023-01-15T10:37:47;21.20;50.50
44863;DHT22;30597;49.628;10.850;2023-01-15T10:43:28;21.20;50.40
44863;DHT22;30597;49.628;10.850;2023-01-15T10:45:58;21.20;50.50
44863;DHT22;30597;49.628;10.850;2023-01-15T10:51:13;21.20;50.60
44863;DHT22;30597;49.628;10.850;2023-01-15T10:54:02;21.20;49.60
44863;DHT22;30597;49.628;10.850;2023-01-15T11:01:33;21.20;49.60
44863;DHT22;30597;49.628;10.850;2023-01-15T11:03:59;21.20;49.60
44863;DHT22;30597;49.628;10.850;2023-01-15T11:06:25;21.10;49.70
44863;DHT22;30597;49.628;10.850;2023-01-15T11:08:57;21.10;49.70
44863;DHT22;30597;49.628;10.850;2023-01-15T11:11:34;21.10;50.00
44863;DHT22;30597;49.628;10.850;2023-01-15T11:14:38;21.10;49.80
44863;DHT22;30597;49.628;10.850;2023-01-15T11:17:24;21.10;50.10
44863;DHT22;30597;49.628;10.850;2023-01-15T11:22:41;21.10;50.00
44863;DHT22;30597;49.628;10.850;2023-01-15T11:25:07;21.10;50.20
44863;DHT22;30597;49.628;10.850;2023-01-15T11:27:36;21.10;50.10
44863;DHT22;30597;49.628;10.850;2023-01-15T11:30:04;21.10;50.20
44863;DHT22;30597;49.628;10.850;2023-01-15T11:32:34;21.10;50.20
44863;DHT22;30597;49.628;10.850;2023-01-15T11:35:18;21.10;50.30
44863;DHT22;30597;49.628;10.850;2023-01-15T11:37:44;21.20;50.20
44863;DHT22;30597;49.628;10.850;2023-01-15T11:40:20;21.30;50.40
44863;DHT22;30597;49.628;10.850;2023-01-15T11:43:23;21.30;50.80
44863;DHT22;30597;49.628;10.850;2023-01-15T11:46:29;21.30;51.10
44863;DHT22;30597;49.628;10.850;2023-01-15T11:49:16;21.40;51.20
44863;DHT22;30597;49.628;10.850;2023-01-15T11:52:10;21.40;51.40
44863;DHT22;30597;49.628;10.850;2023-01-15T11:54:41;21.40;51.50
44863;DHT22;30597;49.628;10.850;2023-01-15T11:57:07;21.40;51.50
44863;DHT22;30597;49.628;10.850;2023-01-15T11:59:34;21.40;51.50
44863;DHT22;30597;49.628;10.850;2023-01-15T12:02:01;21.40;50.90
44863;DHT22;30597;49.628;10.850;2023-01-15T12:04:32;21.30;50.70
44863;DHT22;30597;49.628;10.850;2023-01-15T12:07:00;21.30;50.60
44863;DHT22;30597;49.628;10.850;2023-01-15T12:12:33;21.30;50.60
44863;DHT22;30597;49.628;10.850;2023-01-15T12:28:59;21.20;50.30
44863;DHT22;30597;49.628;10.850;2023-01-15T12:32:00;21.20;50.70
44863;DHT22;30597;49.628;10.850;2023-01-15T12:34:44;21.10;50.40
44863;DHT22;30597;49.628;10.850;2023-01-15T12:37:22;21.10;50.90
44863;DHT22;30597;49.628;10.850;2023-01-15T12:42:26;21.10;49.40
44863;DHT22;30597;49.628;10.850;2023-01-15T12:45:19;21.10;49.30
44863;DHT22;30597;49.628;10.850;2023-01-15T12:47:56;21.10;48.90
44863;DHT22;30597;49.628;10.850;2023-01-15T12:55:32;21.20;48.50
44863;DHT22;30597;49.628;10.850;2023-01-15T12:58:00;21.20;48.70
44863;DHT22;30597;49.628;10.850;2023-01-15T13:00:51;21.30;48.80
44863;DHT22;30597;49.628;10.850;2023-01-15T13:05:57;21.30;48.80
44863;DHT22;30597;49.628;10.850;2023-01-15T13:08:32;21.40;49.00
44863;DHT22;30597;49.628;10.850;2023-01-15T13:11:02;21.40;49.00
44863;DHT22;30597;49.628;10.850;2023-01-15T13:13:39;21.40;48.90
44863;DHT22;30597;49.628;10.850;2023-01-15T13:16:19;21.50;49.10
44863;DHT22;30597;49.628;10.850;2023-01-15T13:19:16;21.40;49.10
44863;DHT22;30597;49.628;10.850;2023-01-15T13:21:47;21.40;49.10
44863;DHT22;30597;49.628;10.850;2023-01-15T13:24:24;21.50;49.20
44863;DHT22;30597;49.628;10.850;2023-01-15T13:32:38;21.50;49.30
44863;DHT22;30597;49.628;10.850;2023-01-15T13:35:28;21.50;49.30
44863;DHT22;30597;49.628;10.850;2023-01-15T13:37:57;21.50;49.30
44863;DHT22;30597;49.628;10.850;2023-01-15T13:43:32;21.50;49.40
44863;DHT22;30597;49.628;10.850;2023-01-15T13:45:59;21.50;49.40
44863;DHT22;30597;49.628;10.850;2023-01-15T13:48:39;21.50;49.40
44863;DHT22;30597;49.628;10.850;2023-01-15T13:51:15;21.60;49.40
44863;DHT22;30597;49.628;10.850;2023-01-15T13:53:47;21.60;49.30
44863;DHT22;30597;49.628;10.850;2023-01-15T13:56:28;21.50;49.30
44863;DHT22;30597;49.628;10.850;2023-01-15T13:59:02;21.60;49.40
44863;DHT22;30597;49.628;10.850;2023-01-15T14:01:35;21.60;49.20
44863;DHT22;30597;49.628;10.850;2023-01-15T14:06:44;21.60;49.50
44863;DHT22;30597;49.628;10.850;2023-01-15T14:12:13;21.50;49.40
44863;DHT22;30597;49.628;10.850;2023-01-15T14:15:07;21.50;49.60
44863;DHT22;30597;49.628;10.850;2023-01-15T14:23:45;21.50;49.70
44863;DHT22;30597;49.628;10.850;2023-01-15T14:29:32;21.60;49.70
44863;DHT22;30597;49.628;10.850;2023-01-15T14:34:58;21.60;49.60
44863;DHT22;30597;49.628;10.850;2023-01-15T14:37:52;21.50;49.20
44863;DHT22;30597;49.628;10.850;2023-01-15T14:40:24;21.40;47.40
44863;DHT22;30597;49.628;10.850;2023-01-15T14:42:54;21.50;45.60
44863;DHT22;30597;49.628;10.850;2023-01-15T14:45:39;21.40;45.70
44863;DHT22;30597;49.628;10.850;2023-01-15T14:48:14;21.50;46.10
44863;DHT22;30597;49.628;10.850;2023-01-15T14:50:42;21.60;46.20
44863;DHT22;30597;49.628;10.850;2023-01-15T14:55:57;21.60;46.40
44863;DHT22;30597;49.628;10.850;2023-01-15T15:06:57;21.50;43.60
44863;DHT22;30597;49.628;10.850;2023-01-15T15:09:47;21.60;44.20
44863;DHT22;30597;49.628;10.850;2023-01-15T15:15:40;21.60;44.60
44863;DHT22;30597;49.628;10.850;2023-01-15T15:18:37;21.60;44.80
44863;DHT22;30597;49.628;10.850;2023-01-15T15:21:19;21.60;44.90
44863;DHT22;30597;49.628;10.850;2023-01-15T15:26:55;21.70;45.50
44863;DHT22;30597;49.628;10.850;2023-01-15T15:29:27;21.70;45.30
44863;DHT22;30597;49.628;10.850;2023-01-15T15:32:22;21.70;45.80
44863;DHT22;30597;49.628;10.850;2023-01-15T15:35:27;21.70;45.90
44863;DHT22;30597;49.628;10.850;2023-01-15T15:37:54;21.70;45.90
44863;DHT22;30597;49.628;10.850;2023-01-15T15:40:24;21.80;46.10
44863;DHT22;30597;49.628;10.850;2023-01-15T15:45:55;21.80;46.30
44863;DHT22;30597;49.628;10.850;2023-01-15T15:48:41;21.70;46.50
44863;DHT22;30597;49.628;10.850;2023-01-15T15:51:33;21.80;48.00
44863;DHT22;30597;49.628;10.850;2023-01-15T15:54:22;21.80;47.60
44863;DHT22;30597;49.628;10.850;2023-01-15T15:57:04;21.90;47.90
44863;DHT22;30597;49.628;10.850;2023-01-15T15:59:37;22.00;48.20
44863;DHT22;30597;49.628;10.850;2023-01-15T16:02:33;22.00;48.20
44863;DHT22;30597;49.628;10.850;2023-01-15T16:05:26;22.00;48.70
44863;DHT22;30597;49.628;10.850;2023-01-15T16:07:55;22.00;49.00
44863;DHT22;30597;49.628;10.850;2023-01-15T16:10:33;22.00;48.70
44863;DHT22;30597;49.628;10.850;2023-01-15T16:13:03;22.10;48.90
44863;DHT22;30597;49.628;10.850;2023-01-15T16:15:39;22.10;49.40
44863;DHT22;30597;49.628;10.850;2023-01-15T16:18:17;22.20;49.10
44863;DHT22;30597;49.628;10.850;2023-01-15T16:20:45;22.20;49.10
44863;DHT22;30597;49.628;10.850;2023-01-15T16:23:26;22.20;49.10
44863;DHT22;30597;49.628;10.850;2023-01-15T16:25:59;22.20;49.20
44863;DHT22;30597;49.628;10.850;2023-01-15T16:28:32;22.20;49.30
44863;DHT22;30597;49.628;10.850;2023-01-15T16:31:01;22.30;49.20
44863;DHT22;30597;49.628;10.850;2023-01-15T16:33:27;22.20;48.70
44863;DHT22;30597;49.628;10.850;2023-01-15T16:36:00;22.20;49.00
44863;DHT22;30597;49.628;10.850;2023-01-15T16:38:31;22.20;49.20
44863;DHT22;30597;49.628;10.850;2023-01-15T16:40:58;22.30;49.20
44863;DHT22;30597;49.628;10.850;2023-01-15T16:43:27;22.30;49.10
44863;DHT22;30597;49.628;10.850;2023-01-15T16:50:48;22.40;49.10
44863;DHT22;30597;49.628;10.850;2023-01-15T16:53:37;22.30;49.10
44863;DHT22;30597;49.628;10.850;2023-01-15T16:59:13;22.40;49.20
44863;DHT22;30597;49.628;10.850;2023-01-15T17:01:43;22.40;49.10
44863;DHT22;30597;49.628;10.850;2023-01-15T17:04:33;22.40;49.10
44863;DHT22;30597;49.628;10.850;2023-01-15T17:07:03;22.40;49.20
44863;DHT22;30597;49.628;10.850;2023-01-15T17:09:32;22.40;49.40
44863;DHT22;30597;49.628;10.850;2023-01-15T17:12:07;22.40;49.40
44863;DHT22;30597;49.628;10.850;2023-01-15T17:14:48;22.50;49.20
44863;DHT22;30597;49.628;10.850;2023-01-15T17:19:47;22.50;49.80
44863;DHT22;30597;49.628;10.850;2023-01-15T17:22:25;22.50;49.40
44863;DHT22;30597;49.628;10.850;2023-01-15T17:24:56;22.50;49.40
44863;DHT22;30597;49.628;10.850;2023-01-15T17:27:22;22.60;49.40
44863;DHT22;30597;49.628;10.850;2023-01-15T17:29:50;22.50;49.40
44863;DHT22;30597;49.628;10.850;2023-01-15T17:32:23;22.50;49.40
44863;DHT22;30597;49.628;10.850;2023-01-15T17:34:50;22.50;49.50
44863;DHT22;30597;49.628;10.850;2023-01-15T17:37:16;22.50;48.90
44863;DHT22;30597;49.628;10.850;2023-01-15T17:39:42;22.50;49.30
44863;DHT22;30597;49.628;10.850;2023-01-15T17:42:16;22.60;49.30
44863;DHT22;30597;49.628;10.850;2023-01-15T17:44:42;22.50;49.40
44863;DHT22;30597;49.628;10.850;2023-01-15T17:47:09;22.60;49.00
44863;DHT22;30597;49.628;10.850;2023-01-15T17:49:34;22.40;48.80